createdAt,value
2023-08-04T00:00:25.387Z,90.52
2023-08-04T00:02:52.018Z,89.98
2023-08-04T00:05:18.541Z,89.52
2023-08-04T00:07:45.188Z,89.27
2023-08-04T00:10:12.148Z,89.37
2023-08-04T00:12:38.664Z,89.40
2023-08-04T00:15:07.160Z,89.73
2023-08-04T00:17:36.578Z,89.41
2023-08-04T00:20:04.358Z,89.65
2023-08-04T00:22:30.889Z,89.52
2023-08-04T00:24:57.431Z,89.95
2023-08-04T00:27:23.967Z,90.21
2023-08-04T00:29:51.646Z,90.29
2023-08-04T00:32:18.270Z,90.16
2023-08-04T00:34:44.780Z,90.31
2023-08-04T00:37:11.268Z,90.04
2023-08-04T00:39:37.868Z,90.43
2023-08-04T00:42:04.725Z,90.44
2023-08-04T00:44:31.315Z,90.64
2023-08-04T00:46:59.157Z,90.83
2023-08-04T00:49:25.727Z,90.73
2023-08-04T00:51:52.475Z,90.33
2023-08-04T00:54:19.055Z,90.27
2023-08-04T00:56:46.612Z,90.47
2023-08-04T00:59:13.217Z,90.54
2023-08-04T01:01:39.780Z,90.46
2023-08-04T01:04:06.442Z,90.62
2023-08-04T01:06:44.608Z,90.98
2023-08-04T01:09:29.201Z,91.26
2023-08-04T01:12:15.444Z,90.79
2023-08-04T01:14:44.053Z,91.07
2023-08-04T01:17:27.873Z,91.00
2023-08-04T01:19:55.103Z,90.80
2023-08-04T01:22:22.540Z,91.77
2023-08-04T01:24:50.266Z,92.21
2023-08-04T01:27:22.530Z,92.50
2023-08-04T01:29:49.319Z,92.53
2023-08-04T01:32:15.841Z,92.08
2023-08-04T01:34:45.910Z,91.83
2023-08-04T01:37:12.654Z,91.41
2023-08-04T01:39:39.306Z,91.47
2023-08-04T01:42:06.419Z,91.60
2023-08-04T01:44:32.992Z,91.79
2023-08-04T01:46:59.640Z,91.79
2023-08-04T01:49:26.096Z,91.41
2023-08-04T01:51:52.609Z,91.27
2023-08-04T01:54:19.618Z,91.35
2023-08-04T01:56:46.105Z,91.43
2023-08-04T01:59:12.569Z,91.20
2023-08-04T02:01:39.054Z,91.13
2023-08-04T02:04:05.887Z,90.82
2023-08-04T02:06:32.420Z,91.32
2023-08-04T02:08:59.429Z,91.58
2023-08-04T02:11:26.706Z,91.69
2023-08-04T02:13:53.296Z,91.63
2023-08-04T02:16:19.871Z,91.67
2023-08-04T02:18:46.382Z,91.17
2023-08-04T02:21:12.843Z,91.44
2023-08-04T02:23:40.403Z,92.54
2023-08-04T02:26:06.898Z,93.05
2023-08-04T02:28:33.539Z,93.15
2023-08-04T02:31:02.001Z,92.99
2023-08-04T02:33:29.521Z,93.52
2023-08-04T02:36:00.532Z,94.00
2023-08-04T02:38:27.415Z,93.82
2023-08-04T02:40:54.022Z,93.55
2023-08-04T02:43:20.516Z,93.20
2023-08-04T02:45:51.510Z,92.84
2023-08-04T02:48:18.045Z,92.87
2023-08-04T02:50:44.882Z,93.49
2023-08-04T02:53:11.511Z,93.70
2023-08-04T02:55:38.234Z,93.80
2023-08-04T02:58:04.796Z,94.39
2023-08-04T03:00:31.631Z,94.33
2023-08-04T03:02:59.754Z,94.67
2023-08-04T03:05:26.347Z,94.36
2023-08-04T03:07:52.777Z,94.20
2023-08-04T03:10:19.304Z,94.76
2023-08-04T03:12:45.782Z,94.47
2023-08-04T03:15:12.281Z,94.83
2023-08-04T03:17:38.815Z,94.58
2023-08-04T03:20:05.803Z,94.70
2023-08-04T03:22:32.291Z,95.41
2023-08-04T03:24:58.760Z,95.28
2023-08-04T03:27:25.273Z,95.27
2023-08-04T03:29:51.814Z,95.14
2023-08-04T03:32:18.306Z,95.23
2023-08-04T03:34:44.862Z,95.39
2023-08-04T03:37:11.342Z,95.37
2023-08-04T03:39:37.796Z,95.55
2023-08-04T03:42:04.644Z,95.13
2023-08-04T03:44:31.170Z,95.22
2023-08-04T03:46:57.708Z,95.69
2023-08-04T03:49:24.362Z,95.91
2023-08-04T03:51:50.933Z,95.73
2023-08-04T03:54:17.416Z,95.65
2023-08-04T03:56:43.908Z,95.34
2023-08-04T03:59:13.025Z,94.99
2023-08-04T04:01:40.186Z,95.33
2023-08-04T04:04:06.768Z,95.09
2023-08-04T04:06:33.282Z,95.18
2023-08-04T04:08:59.743Z,95.40
2023-08-04T04:11:26.197Z,94.63
2023-08-04T04:13:52.643Z,94.35
2023-08-04T04:16:19.350Z,94.16
2023-08-04T04:18:45.844Z,93.92
2023-08-04T04:21:12.343Z,93.96
2023-08-04T04:23:38.800Z,94.25
2023-08-04T04:26:08.432Z,94.23
2023-08-04T04:28:35.113Z,94.48
2023-08-04T04:31:04.503Z,94.35
2023-08-04T04:33:31.437Z,94.53
2023-08-04T04:35:57.993Z,94.51
2023-08-04T04:38:29.041Z,94.35
2023-08-04T04:41:01.432Z,93.79
2023-08-04T04:43:28.745Z,94.01
2023-08-04T04:45:55.866Z,94.01
2023-08-04T04:48:23.570Z,94.61
2023-08-04T04:50:53.201Z,94.33
2023-08-04T04:53:19.944Z,94.67
2023-08-04T04:55:46.421Z,94.51
2023-08-04T04:58:15.952Z,94.59
2023-08-04T05:00:43.204Z,95.22
2023-08-04T05:03:11.944Z,95.07
2023-08-04T05:05:39.245Z,94.25
2023-08-04T05:08:05.853Z,94.84
2023-08-04T05:10:32.340Z,94.38
2023-08-04T05:12:58.914Z,93.97
2023-08-04T05:15:25.451Z,93.79
2023-08-04T05:17:52.074Z,94.00
2023-08-04T05:20:18.703Z,93.87
2023-08-04T05:22:45.188Z,94.54
2023-08-04T05:25:12.078Z,95.63
2023-08-04T05:27:38.752Z,95.93
2023-08-04T05:30:06.178Z,96.66
2023-08-04T05:32:32.820Z,96.76
2023-08-04T05:34:59.294Z,95.91
2023-08-04T05:37:25.793Z,96.72
2023-08-04T05:39:52.312Z,95.93
2023-08-04T05:42:18.772Z,96.16
2023-08-04T05:44:45.596Z,96.11
2023-08-04T05:47:12.354Z,96.14
2023-08-04T05:49:38.912Z,95.90
2023-08-04T05:52:05.588Z,95.73
2023-08-04T05:54:32.094Z,96.71
2023-08-04T05:56:58.547Z,97.45
2023-08-04T05:59:25.015Z,97.91
2023-08-04T06:01:54.927Z,97.41
2023-08-04T06:04:22.556Z,97.34
2023-08-04T06:06:49.265Z,97.32
2023-08-04T06:09:15.737Z,97.15
2023-08-04T06:11:42.950Z,97.19
2023-08-04T06:14:09.462Z,97.19
2023-08-04T06:16:35.976Z,96.69
2023-08-04T06:19:02.512Z,97.56
2023-08-04T06:21:29.630Z,98.46
2023-08-04T06:23:56.164Z,97.14
2023-08-04T06:26:24.507Z,95.89
2023-08-04T06:28:51.385Z,95.55
2023-08-04T06:31:17.912Z,95.50
2023-08-04T06:33:44.546Z,95.83
2023-08-04T06:36:11.026Z,94.75
2023-08-04T06:38:37.706Z,94.39
2023-08-04T06:41:04.243Z,94.33
2023-08-04T06:43:30.838Z,94.20
2023-08-04T06:45:57.292Z,92.89
2023-08-04T06:48:25.250Z,93.34
2023-08-04T06:50:52.829Z,94.08
2023-08-04T06:53:19.317Z,94.97
2023-08-04T06:55:47.436Z,95.78
2023-08-04T06:58:15.030Z,96.48
2023-08-04T07:00:41.592Z,96.64
2023-08-04T07:03:09.462Z,96.85
2023-08-04T07:05:36.088Z,97.60
2023-08-04T07:08:02.768Z,97.60
2023-08-04T07:10:29.318Z,97.88
2023-08-04T07:12:55.757Z,98.43
2023-08-04T07:15:22.339Z,97.77
2023-08-04T07:17:48.915Z,98.77
2023-08-04T07:20:15.636Z,98.28
2023-08-04T07:22:42.306Z,97.43
2023-08-04T07:25:09.086Z,98.50
2023-08-04T07:27:35.567Z,98.42
2023-08-04T07:30:02.111Z,98.65
2023-08-04T07:32:28.606Z,98.90
2023-08-04T07:34:55.170Z,99.40
2023-08-04T07:37:21.673Z,99.84
2023-08-04T07:39:48.150Z,99.12
2023-08-04T07:42:14.637Z,99.74
2023-08-04T07:44:41.113Z,100.00
2023-08-04T07:47:07.595Z,100.00
2023-08-04T07:49:34.104Z,100.00
2023-08-04T07:52:00.634Z,100.00
2023-08-04T07:54:27.157Z,100.00
2023-08-04T07:56:53.661Z,100.00
2023-08-04T07:59:20.230Z,100.00
2023-08-04T08:01:48.023Z,100.00
2023-08-04T08:04:15.687Z,100.00
2023-08-04T08:06:42.514Z,100.00
2023-08-04T08:09:09.332Z,99.88
2023-08-04T08:11:35.905Z,100.00
2023-08-04T08:14:02.361Z,100.00
2023-08-04T08:16:28.927Z,100.00
2023-08-04T08:18:55.524Z,100.00
2023-08-04T08:21:22.153Z,100.00
2023-08-04T08:23:48.661Z,100.00
2023-08-04T08:26:15.187Z,100.00
2023-08-04T08:28:41.620Z,100.00
2023-08-04T08:31:08.168Z,99.59
2023-08-04T08:33:34.694Z,98.51
2023-08-04T08:36:01.183Z,97.76
2023-08-04T08:38:27.659Z,98.10
2023-08-04T08:40:54.259Z,97.79
2023-08-04T08:43:20.721Z,97.25
2023-08-04T08:45:47.457Z,97.09
2023-08-04T08:48:15.049Z,96.50
2023-08-04T08:50:44.861Z,96.18
2023-08-04T08:53:13.973Z,95.05
2023-08-04T08:55:43.901Z,93.62
2023-08-04T08:58:10.622Z,93.88
2023-08-04T09:00:37.703Z,93.17
2023-08-04T09:03:06.322Z,93.47
2023-08-04T09:05:34.556Z,93.77
2023-08-04T09:08:01.484Z,94.77
2023-08-04T09:10:28.007Z,94.46
2023-08-04T09:12:56.160Z,91.63
2023-08-04T09:15:34.395Z,92.32
2023-08-04T09:18:01.665Z,93.33
2023-08-04T09:20:30.148Z,93.59
2023-08-04T09:22:57.250Z,94.54
2023-08-04T09:25:23.759Z,93.20
2023-08-04T09:27:53.345Z,93.35
2023-08-04T09:30:20.002Z,96.58
2023-08-04T09:32:48.025Z,96.64
2023-08-04T09:35:15.482Z,96.25
2023-08-04T09:37:42.469Z,97.69
2023-08-04T09:40:18.087Z,96.93
2023-08-04T09:42:45.617Z,95.95
2023-08-04T09:45:19.527Z,94.91
2023-08-04T09:47:51.772Z,94.11
2023-08-04T09:50:19.926Z,92.75
2023-08-04T09:52:46.777Z,92.14
2023-08-04T09:55:13.430Z,93.25
2023-08-04T09:57:40.722Z,94.32
2023-08-04T10:00:09.734Z,95.27
2023-08-04T10:02:36.692Z,94.82
2023-08-04T10:05:04.953Z,94.66
2023-08-04T10:07:32.524Z,94.40
2023-08-04T10:10:01.745Z,93.76
2023-08-04T10:12:30.111Z,95.07
2023-08-04T10:14:57.276Z,96.23
2023-08-04T10:17:24.193Z,95.26
2023-08-04T10:20:03.700Z,95.17
2023-08-04T10:22:30.474Z,96.33
2023-08-04T10:24:57.083Z,95.08
2023-08-04T10:27:23.668Z,96.48
2023-08-04T10:30:09.283Z,94.61
2023-08-04T10:32:37.559Z,95.21
2023-08-04T10:35:06.551Z,93.18
2023-08-04T10:37:46.028Z,95.27
2023-08-04T10:40:13.174Z,96.39
2023-08-04T10:42:58.479Z,94.30
2023-08-04T10:45:24.950Z,92.52
2023-08-04T10:50:26.203Z,86.75
2023-08-04T10:52:52.817Z,88.86
2023-08-04T10:55:19.401Z,87.26
2023-08-04T10:57:45.883Z,89.05
2023-08-04T11:00:13.001Z,89.21
2023-08-04T11:02:39.780Z,89.28
2023-08-04T11:05:09.902Z,89.81
2023-08-04T11:07:37.039Z,88.96
2023-08-04T11:10:06.211Z,88.79
2023-08-04T11:12:34.391Z,88.51
2023-08-04T11:15:01.514Z,87.29
2023-08-04T11:17:28.515Z,87.11
2023-08-04T11:19:55.158Z,84.96
2023-08-04T11:22:23.477Z,85.39
2023-08-04T11:24:52.042Z,83.49
2023-08-04T11:27:19.580Z,81.92
2023-08-04T11:29:52.796Z,82.62
2023-08-04T11:32:23.569Z,82.43
2023-08-04T11:34:52.909Z,83.78
2023-08-04T11:37:22.790Z,82.27
2023-08-04T11:39:49.872Z,82.70
2023-08-04T11:42:16.678Z,83.50
2023-08-04T11:44:44.395Z,83.06
2023-08-04T11:47:13.344Z,80.92
2023-08-04T11:49:41.329Z,78.35
2023-08-04T11:52:12.060Z,79.61
2023-08-04T11:54:53.119Z,80.09
2023-08-04T11:57:19.942Z,77.50
2023-08-04T11:59:53.909Z,78.95
2023-08-04T12:02:20.645Z,77.35
2023-08-04T12:04:47.612Z,78.31
2023-08-04T12:07:16.873Z,78.87
2023-08-04T12:09:47.172Z,76.51
2023-08-04T12:12:13.673Z,76.61
2023-08-04T12:14:55.269Z,77.23
2023-08-04T12:17:37.387Z,76.12
2023-08-04T12:20:05.863Z,76.93
2023-08-04T12:22:36.565Z,74.58
2023-08-04T12:25:04.864Z,72.71
2023-08-04T12:27:31.817Z,75.65
2023-08-04T12:29:58.339Z,74.82
2023-08-04T12:32:25.149Z,75.90
2023-08-04T12:34:51.899Z,73.99
2023-08-04T12:37:18.438Z,72.68
2023-08-04T12:39:48.045Z,72.21
2023-08-04T12:42:14.554Z,72.18
2023-08-04T12:44:41.005Z,70.64
2023-08-04T12:47:11.579Z,70.18
2023-08-04T12:49:38.336Z,68.66
2023-08-04T12:52:05.192Z,72.24
2023-08-04T12:54:31.814Z,71.06
2023-08-04T12:56:58.296Z,68.18
2023-08-04T12:59:24.804Z,69.52
2023-08-04T13:01:51.708Z,71.01
2023-08-04T13:04:18.410Z,68.97
2023-08-04T13:06:44.975Z,73.30
2023-08-04T13:09:11.461Z,72.35
2023-08-04T13:11:37.961Z,72.08
2023-08-04T13:14:04.536Z,73.63
2023-08-04T13:16:31.019Z,71.43
2023-08-04T13:18:57.546Z,73.55
2023-08-04T13:21:24.061Z,72.55
2023-08-04T13:23:50.545Z,73.89
2023-08-04T13:26:17.084Z,74.86
2023-08-04T13:28:43.724Z,73.63
2023-08-04T13:31:13.240Z,73.65
2023-08-04T13:33:39.925Z,73.16
2023-08-04T13:36:06.421Z,70.71
2023-08-04T13:38:32.885Z,71.31
2023-08-04T13:40:59.407Z,71.73
2023-08-04T13:43:27.107Z,69.91
2023-08-04T13:45:53.765Z,69.56
2023-08-04T13:48:20.307Z,66.78
2023-08-04T13:50:46.800Z,66.54
2023-08-04T13:53:13.729Z,67.91
2023-08-04T13:55:41.137Z,68.18
2023-08-04T13:58:07.706Z,68.65
2023-08-04T14:00:34.245Z,67.63
2023-08-04T14:03:00.789Z,65.36
2023-08-04T14:05:27.366Z,64.98
2023-08-04T14:07:54.483Z,63.61
2023-08-04T14:10:22.478Z,63.70
2023-08-04T14:12:49.045Z,65.14
2023-08-04T14:15:15.551Z,66.00
2023-08-04T14:17:42.150Z,66.56
2023-08-04T14:20:14.460Z,64.35
2023-08-04T14:22:41.102Z,64.80
2023-08-04T14:25:08.060Z,66.16
2023-08-04T14:27:34.567Z,63.84
2023-08-04T14:30:01.840Z,63.25
2023-08-04T14:32:29.016Z,63.81
2023-08-04T14:34:55.655Z,64.86
2023-08-04T14:37:22.171Z,65.13
2023-08-04T14:39:50.672Z,65.66
2023-08-04T14:42:19.042Z,65.91
2023-08-04T14:44:45.648Z,65.97
2023-08-04T14:47:12.401Z,64.76
2023-08-04T14:49:39.046Z,65.22
2023-08-04T14:52:06.099Z,64.90
2023-08-04T14:54:33.341Z,64.97
2023-08-04T14:56:59.917Z,65.68
2023-08-04T14:59:26.405Z,64.97
2023-08-04T15:01:53.589Z,63.36
2023-08-04T15:04:20.107Z,64.42
2023-08-04T15:06:46.586Z,64.66
2023-08-04T15:09:13.086Z,65.63
2023-08-04T15:11:39.572Z,64.73
2023-08-04T15:14:07.134Z,64.33
2023-08-04T15:16:33.921Z,63.95
2023-08-04T15:19:00.569Z,65.45
2023-08-04T15:21:27.022Z,65.23
2023-08-04T15:23:53.690Z,64.31
2023-08-04T15:26:20.335Z,64.17
2023-08-04T15:28:52.961Z,65.17
2023-08-04T15:31:19.889Z,64.94
2023-08-04T15:33:46.411Z,63.54
2023-08-04T15:36:12.944Z,65.04
2023-08-04T15:38:39.650Z,66.63
2023-08-04T15:41:08.626Z,65.28
2023-08-04T15:43:38.265Z,66.88
2023-08-04T15:46:05.835Z,66.44
2023-08-04T15:48:34.077Z,64.04
2023-08-04T15:51:01.092Z,64.68
2023-08-04T15:53:28.275Z,65.10
2023-08-04T15:55:56.774Z,64.67
2023-08-04T15:58:24.342Z,65.21
2023-08-04T16:00:50.893Z,65.03
2023-08-04T16:03:17.439Z,65.34
2023-08-04T16:05:45.551Z,63.82
2023-08-04T16:08:12.059Z,64.45
2023-08-04T16:10:38.734Z,65.24
2023-08-04T16:13:05.193Z,64.71
2023-08-04T16:15:31.960Z,64.85
2023-08-04T16:17:58.571Z,65.37
2023-08-04T16:20:25.059Z,62.51
2023-08-04T16:22:51.522Z,64.12
2023-08-04T16:25:18.160Z,63.19
2023-08-04T16:27:44.677Z,63.85
2023-08-04T16:30:11.748Z,65.06
2023-08-04T16:32:38.467Z,64.60
2023-08-04T16:35:05.626Z,64.50
2023-08-04T16:37:32.113Z,64.70
2023-08-04T16:39:58.675Z,65.21
2023-08-04T16:42:25.109Z,65.34
2023-08-04T16:44:52.135Z,64.35
2023-08-04T16:47:19.477Z,66.24
2023-08-04T16:49:46.020Z,65.06
2023-08-04T16:52:12.523Z,65.42
2023-08-04T16:54:39.081Z,66.15
2023-08-04T16:57:05.851Z,66.25
2023-08-04T16:59:32.489Z,65.96
2023-08-04T17:01:59.287Z,65.27
2023-08-04T17:04:25.842Z,63.70
2023-08-04T17:06:52.441Z,64.52
2023-08-04T17:09:19.365Z,65.61
2023-08-04T17:11:45.989Z,65.71
2023-08-04T17:14:16.509Z,66.18
2023-08-04T17:16:43.371Z,66.40
2023-08-04T17:19:10.079Z,66.10
2023-08-04T17:21:36.746Z,66.01
2023-08-04T17:24:03.588Z,65.82
2023-08-04T17:26:30.295Z,65.70
2023-08-04T17:28:56.770Z,65.95
2023-08-04T17:31:23.629Z,66.01
2023-08-04T17:33:50.187Z,66.06
2023-08-04T17:36:16.901Z,65.76
2023-08-04T17:38:43.425Z,65.83
2023-08-04T17:41:09.942Z,66.52
2023-08-04T17:43:36.405Z,67.30
2023-08-04T17:46:02.996Z,67.22
2023-08-04T17:48:29.605Z,67.35
2023-08-04T17:50:59.093Z,67.51
2023-08-04T17:53:25.899Z,67.75
2023-08-04T17:55:52.497Z,67.58
2023-08-04T17:58:19.435Z,67.65
2023-08-04T18:00:46.798Z,67.77
2023-08-04T18:03:14.036Z,68.01
2023-08-04T18:05:41.812Z,67.85
2023-08-04T18:08:09.481Z,68.19
2023-08-04T18:10:43.449Z,68.09
2023-08-04T18:13:10.981Z,68.29
2023-08-04T18:15:38.817Z,68.70
2023-08-04T18:18:06.079Z,69.36
2023-08-04T18:20:34.109Z,70.00
2023-08-04T18:23:00.696Z,71.05
2023-08-04T18:25:27.489Z,71.64
2023-08-04T18:27:54.168Z,71.76
2023-08-04T18:30:20.726Z,72.49
2023-08-04T18:32:47.642Z,72.86
2023-08-04T18:35:14.296Z,73.44
2023-08-04T18:37:40.760Z,73.66
2023-08-04T18:40:08.366Z,73.69
2023-08-04T18:42:42.203Z,74.53
2023-08-04T18:45:13.205Z,74.77
2023-08-04T18:47:43.669Z,74.61
2023-08-04T18:50:10.534Z,74.90
2023-08-04T18:52:37.776Z,74.34
2023-08-04T18:55:05.422Z,74.99
2023-08-04T18:57:31.938Z,75.56
2023-08-04T18:59:58.447Z,76.21
2023-08-04T19:02:24.923Z,76.50
2023-08-04T19:04:51.642Z,76.57
2023-08-04T19:07:18.166Z,76.84
2023-08-04T19:09:45.125Z,76.91
2023-08-04T19:12:11.632Z,76.71
2023-08-04T19:14:38.128Z,77.48
2023-08-04T19:17:06.129Z,77.60
2023-08-04T19:19:33.805Z,78.29
2023-08-04T19:22:01.290Z,79.97
2023-08-04T19:24:28.328Z,80.52
2023-08-04T19:26:54.958Z,82.07
2023-08-04T19:29:21.636Z,81.54
2023-08-04T19:31:48.220Z,81.34
2023-08-04T19:34:16.211Z,81.39
2023-08-04T19:36:44.003Z,81.34
2023-08-04T19:39:10.571Z,81.03
2023-08-04T19:41:37.104Z,81.20
2023-08-04T19:44:03.927Z,82.11
2023-08-04T19:46:30.540Z,81.98
2023-08-04T19:48:57.089Z,81.67
2023-08-04T19:51:23.585Z,81.49
2023-08-04T19:53:50.179Z,81.98
2023-08-04T19:56:16.800Z,81.71
2023-08-04T19:58:43.442Z,81.63
2023-08-04T20:01:11.359Z,81.74
2023-08-04T20:03:38.944Z,81.41
2023-08-04T20:06:06.201Z,82.09
2023-08-04T20:08:33.531Z,83.75
2023-08-04T20:11:01.681Z,83.18
2023-08-04T20:13:28.713Z,82.91
2023-08-04T20:16:05.165Z,82.36
2023-08-04T20:18:32.466Z,82.39
2023-08-04T20:20:58.972Z,82.26
2023-08-04T20:23:25.439Z,82.11
2023-08-04T20:25:52.086Z,81.55
2023-08-04T20:28:18.657Z,81.12
2023-08-04T20:30:50.937Z,80.39
2023-08-04T20:33:17.900Z,79.93
2023-08-04T20:35:55.371Z,81.86
2023-08-04T20:38:22.013Z,82.77
2023-08-04T20:41:01.151Z,82.73
2023-08-04T20:43:27.758Z,83.04
2023-08-04T20:45:54.305Z,83.29
2023-08-04T20:48:21.469Z,83.50
2023-08-04T20:50:51.800Z,82.33
2023-08-04T20:53:19.044Z,82.48
2023-08-04T20:55:50.733Z,82.17
2023-08-04T20:58:19.277Z,82.13
2023-08-04T21:00:47.182Z,82.25
2023-08-04T21:03:13.894Z,82.23
2023-08-04T21:05:41.494Z,82.57
2023-08-04T21:08:08.052Z,82.62
2023-08-04T21:10:34.708Z,83.84
2023-08-04T21:13:01.196Z,83.56
2023-08-04T21:15:29.016Z,82.99
2023-08-04T21:17:55.610Z,82.59
2023-08-04T21:20:22.249Z,82.75
2023-08-04T21:22:48.828Z,82.44
2023-08-04T21:25:15.629Z,82.54
2023-08-04T21:27:42.208Z,82.66
2023-08-04T21:30:09.263Z,83.55
2023-08-04T21:32:35.980Z,83.96
2023-08-04T21:35:03.944Z,84.24
2023-08-04T21:37:30.649Z,83.86
2023-08-04T21:39:57.233Z,83.65
2023-08-04T21:42:23.951Z,84.54
2023-08-04T21:44:54.402Z,85.45
2023-08-04T21:47:21.492Z,85.13
2023-08-04T21:49:48.592Z,84.48
2023-08-04T21:52:15.465Z,85.10
2023-08-04T21:54:42.061Z,85.00
2023-08-04T21:57:08.739Z,85.22
2023-08-04T21:59:35.291Z,85.19
2023-08-04T22:02:01.952Z,85.08
2023-08-04T22:04:28.702Z,84.52
2023-08-04T22:06:55.472Z,84.71
2023-08-04T22:09:21.935Z,85.01
2023-08-04T22:11:48.483Z,85.42
2023-08-04T22:14:17.012Z,86.09
2023-08-04T22:16:43.615Z,87.23
2023-08-04T22:19:10.391Z,87.74
2023-08-04T22:21:37.102Z,87.73
2023-08-04T22:24:03.769Z,87.19
2023-08-04T22:26:30.302Z,87.88
2023-08-04T22:28:57.036Z,86.87
2023-08-04T22:31:23.600Z,87.04
2023-08-04T22:33:50.263Z,86.79
2023-08-04T22:36:16.797Z,86.93
2023-08-04T22:38:43.410Z,87.87
2023-08-04T22:41:09.916Z,87.70
2023-08-04T22:43:36.446Z,86.99
2023-08-04T22:46:04.629Z,86.04
2023-08-04T22:48:32.568Z,86.59
2023-08-04T22:50:59.122Z,87.20
2023-08-04T22:53:25.755Z,87.40
2023-08-04T22:55:52.413Z,87.91
2023-08-04T22:58:18.979Z,87.38
2023-08-04T23:00:45.546Z,86.58
2023-08-04T23:03:12.190Z,85.65
2023-08-04T23:05:38.770Z,85.47
2023-08-04T23:08:05.303Z,84.26
2023-08-04T23:10:31.844Z,83.88
2023-08-04T23:12:58.353Z,82.71
2023-08-04T23:15:24.851Z,81.36
2023-08-04T23:17:51.435Z,81.05
2023-08-04T23:20:18.016Z,81.28
2023-08-04T23:22:44.593Z,82.55
2023-08-04T23:25:11.112Z,83.61
2023-08-04T23:27:37.731Z,84.29
2023-08-04T23:30:05.103Z,84.49
2023-08-04T23:32:31.766Z,83.57
2023-08-04T23:34:58.461Z,83.98
2023-08-04T23:37:24.918Z,84.13
2023-08-04T23:39:51.460Z,83.95
2023-08-04T23:42:17.908Z,83.86
2023-08-04T23:44:44.482Z,83.58
2023-08-04T23:47:11.007Z,83.01
2023-08-04T23:49:37.625Z,83.17
2023-08-04T23:52:04.393Z,83.07
2023-08-04T23:54:30.877Z,83.71
2023-08-04T23:56:57.320Z,84.53
2023-08-04T23:59:23.816Z,85.09
